createdAt,value
2023-08-05T00:04:11.605Z,4.43
2023-08-05T00:09:17.152Z,4.60
2023-08-05T00:14:22.961Z,4.75
2023-08-05T00:19:28.531Z,4.60
2023-08-05T00:24:34.147Z,5.05
2023-08-05T00:29:39.785Z,4.90
2023-08-05T00:34:45.330Z,4.82
2023-08-05T00:39:50.932Z,4.38
2023-08-05T00:44:56.945Z,4.88
2023-08-05T00:50:02.957Z,4.38
2023-08-05T00:55:09.454Z,4.82
2023-08-05T01:00:15.309Z,5.15
2023-08-05T01:05:22.729Z,4.57
2023-08-05T01:10:28.733Z,4.88
2023-08-05T01:15:34.364Z,5.50
2023-08-05T01:20:46.935Z,5.20
2023-08-05T01:25:54.598Z,5.53
2023-08-05T01:31:02.704Z,4.70
2023-08-05T01:36:08.450Z,4.53
2023-08-05T01:41:14.388Z,4.93
2023-08-05T01:46:20.169Z,5.03
2023-08-05T01:51:26.779Z,5.13
2023-08-05T01:56:32.586Z,4.75
2023-08-05T02:01:46.981Z,5.45
2023-08-05T02:06:53.137Z,4.63
2023-08-05T02:11:58.980Z,5.55
2023-08-05T02:17:05.458Z,5.15
2023-08-05T02:22:11.214Z,5.88
2023-08-05T02:27:17.102Z,4.80
2023-08-05T02:32:22.790Z,13.13
2023-08-05T02:37:29.550Z,14.48
2023-08-05T02:42:36.081Z,7.68
2023-08-05T02:47:41.825Z,6.40
2023-08-05T02:52:47.388Z,6.93
2023-08-05T02:57:53.202Z,5.53
2023-08-05T03:02:58.874Z,5.30
2023-08-05T03:08:04.989Z,5.07
2023-08-05T03:13:10.999Z,4.40
2023-08-05T03:18:17.490Z,4.60
2023-08-05T03:23:24.272Z,4.57
2023-08-05T03:28:35.646Z,4.70
2023-08-05T03:33:44.442Z,4.68
2023-08-05T03:38:53.583Z,4.60
2023-08-05T03:44:00.283Z,4.70
2023-08-05T03:49:06.938Z,4.57
2023-08-05T03:54:12.502Z,4.28
2023-08-05T04:04:23.638Z,4.53
2023-08-05T04:09:30.685Z,4.30
2023-08-05T04:14:39.220Z,3.53
2023-08-05T04:19:46.899Z,4.00
2023-08-05T04:24:53.515Z,3.40
2023-08-05T04:29:59.908Z,3.90
2023-08-05T04:35:06.039Z,4.72
2023-08-05T04:40:12.547Z,5.18
2023-08-05T04:45:18.100Z,5.03
2023-08-05T04:50:24.201Z,5.38
2023-08-05T04:55:29.783Z,4.80
2023-08-05T05:00:35.421Z,3.92
2023-08-05T05:05:46.839Z,4.28
2023-08-05T05:10:52.672Z,4.68
2023-08-05T05:15:58.593Z,4.70
2023-08-05T05:21:04.223Z,4.55
2023-08-05T05:26:09.818Z,4.40
2023-08-05T05:31:15.399Z,5.15
2023-08-05T05:36:21.140Z,4.65
2023-08-05T05:41:26.661Z,5.05
2023-08-05T05:46:35.228Z,4.63
2023-08-05T05:51:40.908Z,5.22
2023-08-05T05:56:46.472Z,4.95
2023-08-05T06:01:51.990Z,5.30
2023-08-05T06:06:57.685Z,4.28
2023-08-05T06:12:03.710Z,4.15
2023-08-05T06:17:08.956Z,4.35
2023-08-05T06:22:14.873Z,3.83
2023-08-05T06:27:20.459Z,3.42
2023-08-05T06:32:26.064Z,3.08
2023-08-05T06:37:31.536Z,3.30
2023-08-05T06:42:37.134Z,3.42
2023-08-05T06:47:42.694Z,2.97
2023-08-05T06:52:48.330Z,3.40
2023-08-05T06:57:54.317Z,2.75
2023-08-05T07:03:00.136Z,2.85
2023-08-05T07:08:05.902Z,2.88
2023-08-05T07:13:11.623Z,2.55
2023-08-05T07:18:17.287Z,2.75
2023-08-05T07:23:22.807Z,3.45
2023-08-05T07:33:33.822Z,2.95
2023-08-05T07:38:44.091Z,2.85
2023-08-05T07:43:52.705Z,3.47
2023-08-05T07:49:00.520Z,3.05
2023-08-05T07:54:05.989Z,3.25
2023-08-05T07:59:17.458Z,3.08
2023-08-05T08:04:23.615Z,2.83
2023-08-05T08:09:29.500Z,2.53
2023-08-05T08:14:35.061Z,3.20
2023-08-05T08:24:45.571Z,2.88
2023-08-05T08:29:50.932Z,3.40
2023-08-05T08:34:56.508Z,2.72
2023-08-05T08:40:02.142Z,3.40
2023-08-05T08:45:11.367Z,3.78
2023-08-05T08:50:18.052Z,2.63
2023-08-05T08:55:27.382Z,3.10
2023-08-05T09:00:39.248Z,2.88
2023-08-05T09:05:50.900Z,2.78
2023-08-05T09:16:01.764Z,2.95
2023-08-05T09:21:07.784Z,2.83
2023-08-05T09:26:13.816Z,3.15
2023-08-05T09:31:19.871Z,3.08
2023-08-05T09:36:26.237Z,3.70
2023-08-05T09:41:33.938Z,3.78
2023-08-05T09:47:06.191Z,2.92
2023-08-05T09:52:13.835Z,2.28
2023-08-05T09:57:21.844Z,2.30
2023-08-05T10:02:28.259Z,2.63
2023-08-05T10:07:33.888Z,3.30
2023-08-05T10:12:43.931Z,2.85
2023-08-05T10:17:50.837Z,2.92
2023-08-05T10:23:10.657Z,2.75
2023-08-05T10:28:25.791Z,3.20
2023-08-05T10:33:31.846Z,3.08
2023-08-05T10:38:44.806Z,3.08
2023-08-05T10:43:50.598Z,2.63
2023-08-05T10:48:56.297Z,2.55
2023-08-05T10:54:02.199Z,3.47
2023-08-05T10:59:07.856Z,2.75
2023-08-05T11:04:32.956Z,2.53
2023-08-05T11:09:38.698Z,2.85
2023-08-05T11:14:43.423Z,3.03
2023-08-05T11:19:56.772Z,2.83
2023-08-05T11:25:04.607Z,3.78
2023-08-05T11:30:14.906Z,3.20
2023-08-05T11:35:21.062Z,3.25
2023-08-05T11:40:29.561Z,3.10
2023-08-05T11:46:06.964Z,3.42
2023-08-05T11:51:12.294Z,2.65
2023-08-05T11:56:25.296Z,3.13
2023-08-05T12:01:31.036Z,2.80
2023-08-05T12:06:36.645Z,3.00
2023-08-05T12:11:59.279Z,3.08
2023-08-05T12:17:05.449Z,2.95
2023-08-05T12:22:11.157Z,3.10
2023-08-05T12:27:17.554Z,3.38
2023-08-05T12:32:22.986Z,3.95
2023-08-05T12:42:34.528Z,2.90
2023-08-05T12:47:41.160Z,4.05
2023-08-05T12:52:46.881Z,3.28
2023-08-05T12:57:53.078Z,3.05
2023-08-05T13:02:58.766Z,3.55
2023-08-05T13:13:09.659Z,3.53
2023-08-05T13:18:15.094Z,3.42
2023-08-05T13:23:20.747Z,3.40
2023-08-05T13:28:26.350Z,3.22
2023-08-05T13:38:38.020Z,3.10
2023-08-05T13:43:44.394Z,3.25
2023-08-05T13:48:50.074Z,2.80
2023-08-05T13:54:01.664Z,2.88
2023-08-05T13:59:07.133Z,3.40
2023-08-05T14:04:12.669Z,3.97
2023-08-05T14:14:24.498Z,3.17
2023-08-05T14:19:30.104Z,3.75
2023-08-05T14:29:41.064Z,3.53
2023-08-05T14:34:49.942Z,3.58
2023-08-05T14:40:01.742Z,3.17
2023-08-05T14:45:10.040Z,3.55
2023-08-05T14:50:15.742Z,3.72
2023-08-05T14:55:21.420Z,4.22
2023-08-05T15:05:31.995Z,3.92
2023-08-05T15:10:37.721Z,3.53
2023-08-05T15:15:50.799Z,3.83
2023-08-05T15:20:56.421Z,3.63
2023-08-05T15:31:20.581Z,4.20
2023-08-05T15:36:26.114Z,4.00
2023-08-05T15:41:32.456Z,4.32
2023-08-05T15:46:38.234Z,3.75
2023-08-05T15:51:43.827Z,4.20
2023-08-05T15:56:49.335Z,4.97
2023-08-05T16:01:54.948Z,5.38
2023-08-05T16:07:00.552Z,5.88
2023-08-05T16:12:06.500Z,5.93
2023-08-05T16:17:12.238Z,8.48
2023-08-05T16:22:17.830Z,7.28
2023-08-05T16:27:23.276Z,3.97
2023-08-05T16:32:29.324Z,4.43
2023-08-05T16:37:34.738Z,5.45
2023-08-05T16:42:40.100Z,3.78
2023-08-05T16:47:45.646Z,4.10
2023-08-05T16:52:51.103Z,4.82
2023-08-05T16:57:56.898Z,4.45
2023-08-05T17:03:02.712Z,4.28
2023-08-05T17:08:08.213Z,4.00
2023-08-05T17:13:13.930Z,4.50
2023-08-05T17:18:19.776Z,4.07
2023-08-05T17:23:25.877Z,3.95
2023-08-05T17:28:31.364Z,3.90
2023-08-05T17:33:37.002Z,4.25
2023-08-05T17:38:42.668Z,4.20
2023-08-05T17:43:48.288Z,4.65
2023-08-05T17:48:53.941Z,3.88
2023-08-05T17:53:59.609Z,5.47
2023-08-05T17:59:05.222Z,4.90
2023-08-05T18:04:11.997Z,4.97
2023-08-05T18:09:17.694Z,4.57
2023-08-05T18:14:23.282Z,4.43
2023-08-05T18:19:28.937Z,5.10
2023-08-05T18:24:34.332Z,4.45
2023-08-05T18:29:40.097Z,5.15
2023-08-05T18:34:45.761Z,4.93
2023-08-05T18:39:51.514Z,5.38
2023-08-05T18:44:57.237Z,4.55
2023-08-05T18:50:02.802Z,5.75
2023-08-05T18:55:09.893Z,5.45
2023-08-05T19:00:15.766Z,5.50
2023-08-05T19:05:21.335Z,5.80
2023-08-05T19:10:26.971Z,5.68
2023-08-05T19:15:32.722Z,5.78
2023-08-05T19:20:38.672Z,5.88
2023-08-05T19:25:44.706Z,6.75
2023-08-05T19:30:50.398Z,5.93
2023-08-05T19:35:56.543Z,5.47
2023-08-05T19:46:10.894Z,6.25
2023-08-05T19:51:16.551Z,7.20
2023-08-05T19:56:22.273Z,6.18
2023-08-05T20:01:28.066Z,6.05
2023-08-05T20:06:33.879Z,6.43
2023-08-05T20:11:39.365Z,6.38
2023-08-05T20:16:45.116Z,6.18
2023-08-05T20:21:51.737Z,5.68
2023-08-05T20:26:57.560Z,5.80
2023-08-05T20:32:03.220Z,5.78
2023-08-05T20:37:08.852Z,6.65
2023-08-05T20:42:14.509Z,5.75
2023-08-05T20:47:20.102Z,5.47
2023-08-05T20:52:25.874Z,5.50
2023-08-05T20:57:31.456Z,5.57
2023-08-05T21:02:36.870Z,5.55
2023-08-05T21:07:43.675Z,5.25
2023-08-05T21:12:49.258Z,5.32
2023-08-05T21:17:54.988Z,5.28
2023-08-05T21:23:00.712Z,5.03
2023-08-05T21:28:06.336Z,4.75
2023-08-05T21:33:11.934Z,5.53
2023-08-05T21:38:17.425Z,5.15
2023-08-05T21:43:23.424Z,4.35
2023-08-05T21:48:31.599Z,5.22
2023-08-05T21:53:37.489Z,4.47
2023-08-05T21:58:43.142Z,3.70
2023-08-05T22:03:48.877Z,4.10
2023-08-05T22:08:54.615Z,3.88
2023-08-05T22:14:00.146Z,4.10
2023-08-05T22:19:05.970Z,3.83
2023-08-05T22:24:12.133Z,4.25
2023-08-05T22:29:19.145Z,3.55
2023-08-05T22:34:24.772Z,3.95
2023-08-05T22:39:30.219Z,3.70
2023-08-05T22:44:35.804Z,3.78
2023-08-05T22:49:41.461Z,4.32
2023-08-05T22:54:47.309Z,3.67
2023-08-05T22:59:56.329Z,4.70
2023-08-05T23:05:01.791Z,4.30
2023-08-05T23:10:09.715Z,4.05
2023-08-05T23:15:15.708Z,3.70
2023-08-05T23:20:21.428Z,4.03
2023-08-05T23:25:27.216Z,3.95
2023-08-05T23:30:33.010Z,4.10
2023-08-05T23:35:41.951Z,4.25
2023-08-05T23:40:47.518Z,4.28
2023-08-05T23:45:53.127Z,3.83
2023-08-05T23:50:58.706Z,4.18
2023-08-05T23:56:04.334Z,4.18
